KCMY/CMY METAR and TAF weather

Enter ICAO airport designator
Station Type Date Time Source
KCMY METAR 2019/04/25 22:35 UTC NOAA

KCMY 252235Z AUTO 00000KT 10SM CLR 13/10 A2981 RMK AO2 T01270101


Station Type Date Time Source
KCMY Decoded METAR 2019/04/25 22:35 UTC NOAA

Sparta, Sparta / Fort McCoy Airport, WI, United States (KCMY) 43-57-30N 090-44-16W
Apr 25, 2019 - 06:35 PM EDT / 2019.04.25 2235 UTC
Wind: Calm:0
Visibility: 10 mile(s):0
Sky conditions: clear
Temperature: 54.9 F (12.7 C)
Dew Point: 50.2 F (10.1 C)
Relative Humidity: 84%
Pressure (altimeter): 29.81 in. Hg (1009 hPa)
ob: KCMY 252235Z AUTO 00000KT 10SM CLR 13/10 A2981 RMK AO2 T01270101
cycle: 22

Station Type Date Time Source
KCMY TAF UTC NOAA

Error!

Example: see airport list